Flight Track Log - Related Links

Times and Time Zones

All times are in EDT time to prevent confusion due to time zone crossing. See the TRS886 flight status page for this flight to view local times or setup timezone preferences in your user account.

Time Position Orientation Groundspeed Altitude Reporting Facility
EDT Latitude Longitude Course Direction KTS MPH feet Rate Location/Type
Sun 02:16:46 PM 28.4167 -81.3000 180° South 196 226 600  Level Orlando TRACON
Sun 02:17:10 PM 28.3833 -81.3000 180° South 168 193 1,500 1,500 Climbing Orlando TRACON
Sun 02:18:10 PM 28.3500 -81.3500 233° Southwest 242 278 2,700 1,835 Climbing Orlando TRACON
Sun 02:19:11 PM 28.3500 -81.4333 270° West 261 300 5,200 2,354 Climbing Orlando TRACON
Sun 02:21:39 PM 28.3714 -81.6375 277° West 270 311 10,900 2,019 Climbing Jacksonville Center
Sun 02:22:39 PM 28.3931 -81.7386 284° West 300 345 12,200 1,650 Climbing Jacksonville Center
Sun 02:23:39 PM 28.4189 -81.8447 285° West 330 380 14,200 1,650 Climbing Jacksonville Center
Sun 02:24:39 PM 28.4533 -81.9528 290° West 348 400 15,500 1,500 Climbing Jacksonville Center
Sun 02:25:39 PM 28.4833 -82.0611 288° West 364 419 17,200 1,650 Climbing Jacksonville Center
Sun 02:26:39 PM 28.5153 -82.1767 287° West 369 425 18,800 1,650 Climbing Jacksonville Center
Sun 02:27:39 PM 28.5472 -82.2922 287° West 381 438 20,500 1,550 Climbing Jacksonville Center
Sun 02:28:39 PM 28.5831 -82.4150 288° West 393 452 21,900 1,400 Climbing Jacksonville Center
Sun 02:29:39 PM 28.6189 -82.5403 288° West 406 467 23,300 1,450 Climbing Jacksonville Center
Sun 02:30:39 PM 28.6547 -82.6656 288° West 416 479 24,800 1,400 Climbing Jacksonville Center
Sun 02:31:39 PM 28.6903 -82.7883 288° West 416 479 26,100 1,300 Climbing Jacksonville Center
Sun 02:32:39 PM 28.7489 -82.9044 300° West 416 479 27,400 1,850 Climbing Jacksonville Center
Sun 02:33:39 PM 28.8489 -82.9850 325° Northwest 416 479 29,800 1,850 Climbing Jacksonville Center
Sun 02:34:39 PM 28.9450 -83.0564 327° Northwest 416 479 31,100 1,050 Climbing Jacksonville Center
Sun 02:35:39 PM 29.0408 -83.1325 325° Northwest 416 479 31,900 650 Climbing Jacksonville Center
Sun 02:36:39 PM 29.1347 -83.2017 327° Northwest 410 472 32,400 1,000 Climbing Jacksonville Center
Sun 02:37:39 PM 29.2242 -83.2733 325° Northwest 405 466 33,900 800 Climbing Jacksonville Center
Sun 02:38:39 PM 29.3158 -83.3428 327° Northwest 399 459 34,000 50 Climbing Jacksonville Center
Sun 02:39:39 PM 29.3950 -83.4050 326° Northwest 399 459 34,000  Level Jacksonville Center
Sun 02:40:39 PM 29.4864 -83.4747 326° Northwest 399 459 34,000  Level Jacksonville Center
Sun 02:41:39 PM 29.5758 -83.5444 326° Northwest 399 459 34,000  Level Jacksonville Center
Sun 02:42:39 PM 29.6631 -83.6167 324° Northwest 394 453 34,000  Level Jacksonville Center
Sun 02:43:39 PM 29.7547 -83.6844 327° Northwest 394 453 34,000  Level Jacksonville Center
Sun 02:44:39 PM 29.8439 -83.7547 326° Northwest 394 453 34,000  Level Jacksonville Center
Sun 02:45:39 PM 29.9311 -83.8225 326° Northwest 394 453 34,000 -50 Level Jacksonville Center
Sun 02:46:39 PM 30.0225 -83.8931 326° Northwest 394 453 33,900  Descending Jacksonville Center
Sun 02:47:39 PM 30.1117 -83.9611 327° Northwest 394 453 34,000 50 Climbing Jacksonville Center
Sun 02:48:39 PM 30.1989 -84.0317 325° Northwest 394 453 34,000  Level Jacksonville Center
Sun 02:49:39 PM 30.2858 -84.1025 325° Northwest 389 448 34,000  Level Jacksonville Center
Sun 02:50:39 PM 30.3769 -84.1711 327° Northwest 389 448 34,000  Level Jacksonville Center
Sun 02:51:39 PM 30.4722 -84.2472 325° Northwest 384 442 34,000  Level Jacksonville Center
Sun 02:52:39 PM 30.5428 -84.3036 325° Northwest 389 448 34,000  Level Jacksonville Center
Sun 02:53:39 PM 30.6378 -84.3822 325° Northwest 383 441 34,000  Level Jacksonville Center
Sun 02:54:40 PM 30.7267 -84.4536 325° Northwest 383 441 34,000  Level Jacksonville Center
Sun 02:55:40 PM 30.8075 -84.5156 327° Northwest 383 441 34,000  Level Jacksonville Center
Sun 02:56:39 PM 30.9044 -84.5947 325° Northwest 383 441 34,000  Level Jacksonville Center
Sun 02:57:39 PM 30.9911 -84.6642 326° Northwest 378 435 34,000  Level Jacksonville Center
Sun 02:58:39 PM 31.0800 -84.7361 325° Northwest 378 435 34,000  Level Jacksonville Center
Sun 03:00:58 PM 31.2950 -84.9089 326° Northwest 383 441 34,000  Level Atlanta Center
Sun 03:01:58 PM 31.3842 -84.9825 325° Northwest 377 434 34,000  Level Atlanta Center
Sun 03:02:58 PM 31.4733 -85.0567 325° Northwest 382 440 34,000  Level Atlanta Center
Sun 03:03:58 PM 31.5644 -85.1308 325° Northwest 388 447 34,000  Level Atlanta Center
Sun 03:04:58 PM 31.6514 -85.2000 326° Northwest 388 447 34,000  Level Atlanta Center
Sun 03:05:58 PM 31.7425 -85.2744 325° Northwest 388 447 34,000  Level Atlanta Center
Sun 03:06:58 PM 31.8317 -85.3467 325° Northwest 394 453 34,000  Level Atlanta Center
Sun 03:07:58 PM 31.9247 -85.4239 325° Northwest 400 460 34,000  Level Atlanta Center
Sun 03:08:58 PM 32.0178 -85.4989 326° Northwest 400 460 34,000  Level Atlanta Center
Sun 03:09:58 PM 32.1067 -85.5714 325° Northwest 400 460 34,000  Level Atlanta Center
Sun 03:10:58 PM 32.1953 -85.6464 324° Northwest 395 455 34,000  Level Atlanta Center
Sun 03:11:58 PM 32.2842 -85.7194 325° Northwest 395 455 34,000  Level Atlanta Center
Sun 03:12:58 PM 32.3708 -85.7947 324° Northwest 395 455 34,000  Level Atlanta Center
Sun 03:13:58 PM 32.4553 -85.8703 323° Northwest 390 449 34,000  Level Atlanta Center
Sun 03:14:58 PM 32.5461 -85.9386 328° Northwest 390 449 34,000  Level Atlanta Center
Sun 03:15:58 PM 32.6242 -86.0069 324° Northwest 385 443 34,000  Level Atlanta Center
Sun 03:16:58 PM 32.7128 -86.0781 326° Northwest 385 443 34,000  Level Atlanta Center
Sun 03:17:58 PM 32.7992 -86.1542 323° Northwest 385 443 34,000  Level Atlanta Center
Sun 03:18:58 PM 32.8875 -86.2356 322° Northwest 385 443 34,000  Level Atlanta Center
Sun 03:19:58 PM 32.9761 -86.3019 328° Northwest 377 434 34,000  Level Atlanta Center
Sun 03:20:58 PM 33.0644 -86.3761 325° Northwest 383 441 34,000  Level Atlanta Center
Sun 03:21:58 PM 33.1506 -86.4578 322° Northwest 383 441 34,000  Level Atlanta Center
Sun 03:22:58 PM 33.2392 -86.5225 329° Northwest 383 441 34,000  Level Atlanta Center
Sun 03:23:58 PM 33.3314 -86.6072 323° Northwest 377 434 34,000  Level Atlanta Center
Sun 03:24:58 PM 33.4194 -86.6819 325° Northwest 377 434 34,000  Level Atlanta Center
Sun 03:25:58 PM 33.5056 -86.7567 324° Northwest 382 440 34,000  Level Atlanta Center
Sun 03:26:58 PM 33.5914 -86.8319 324° Northwest 382 440 34,000  Level Atlanta Center
Sun 03:27:58 PM 33.6753 -86.9044 324° Northwest 375 432 34,000  Level Atlanta Center
Sun 03:28:58 PM 33.7614 -86.9722 327° Northwest 375 432 34,000  Level Atlanta Center
Sun 03:30:56 PM 33.9342 -87.1125 326° Northwest 404 465 34,000  Level Memphis Center
Sun 03:31:56 PM 34.0233 -87.1769 329° Northwest 386 444 34,000  Level Memphis Center
Sun 03:32:56 PM 34.1086 -87.2464 326° Northwest 374 430 34,000  Level Memphis Center
Sun 03:33:56 PM 34.1981 -87.3136 328° Northwest 382 440 34,000  Level Memphis Center
Sun 03:34:56 PM 34.2853 -87.3858 326° Northwest 382 440 34,000  Level Memphis Center
Sun 03:35:56 PM 34.3767 -87.4556 328° Northwest 377 434 34,000  Level Memphis Center
Sun 03:36:56 PM 34.4639 -87.5283 325° Northwest 377 434 34,000  Level Memphis Center
Sun 03:37:56 PM 34.5511 -87.6011 326° Northwest 377 434 34,000  Level Memphis Center
Sun 03:38:56 PM 34.6444 -87.6711 328° Northwest 388 447 34,000  Level Memphis Center
Sun 03:39:56 PM 34.7231 -87.7369 325° Northwest 388 447 34,000  Level Memphis Center
Sun 03:40:56 PM 34.8164 -87.8097 327° Northwest 388 447 34,000  Level Memphis Center
Sun 03:41:56 PM 34.9053 -87.8831 326° Northwest 394 453 34,000  Level Memphis Center
Sun 03:42:56 PM 34.9986 -87.9589 326° Northwest 400 460 34,000  Level Memphis Center
Sun 03:43:56 PM 35.0919 -88.0325 327° Northwest 405 466 34,000  Level Memphis Center
Sun 03:44:56 PM 35.1831 -88.1139 324° Northwest 405 466 34,000  Level Memphis Center
Sun 03:45:56 PM 35.2783 -88.1900 327° Northwest 405 466 34,000  Level Memphis Center
Sun 03:46:56 PM 35.3714 -88.2667 326° Northwest 405 466 34,000  Level Memphis Center
Sun 03:47:56 PM 35.4644 -88.3381 328° Northwest 405 466 34,000  Level Memphis Center
Sun 03:48:56 PM 35.5575 -88.4200 324° Northwest 405 466 34,000  Level Memphis Center
Sun 03:49:56 PM 35.6525 -88.4969 327° Northwest 405 466 34,000  Level Memphis Center
Sun 03:50:56 PM 35.7453 -88.5767 325° Northwest 405 466 34,000 -100 Level Memphis Center
Sun 03:51:56 PM 35.8361 -88.6492 327° Northwest 405 466 33,800 -950 Descending Memphis Center
Sun 03:52:56 PM 35.9269 -88.7267 325° Northwest 405 466 32,100 -900 Descending Memphis Center
Sun 03:53:56 PM 36.0153 -88.8019 325° Northwest 405 466 32,000 -50 Descending Memphis Center
Sun 03:54:56 PM 36.1081 -88.8822 325° Northwest 405 466 32,000  Level Memphis Center
Sun 03:55:56 PM 36.1986 -88.9578 326° Northwest 405 466 32,000  Level Memphis Center
Sun 03:56:56 PM 36.2911 -89.0336 327° Northwest 405 466 32,000  Level Memphis Center
Sun 03:57:56 PM 36.3961 -89.0936 335° Northwest 405 466 32,000  Level Memphis Center
Sun 03:58:56 PM 36.5031 -89.1539 336° Northwest 410 472 32,000  Level Memphis Center
Sun 03:59:56 PM 36.6097 -89.2144 336° Northwest 415 478 32,000  Level Memphis Center
Sun 04:00:56 PM 36.7125 -89.2775 334° Northwest 415 478 32,000  Level Memphis Center
Sun 04:01:56 PM 36.8172 -89.3383 335° Northwest 415 478 32,000 -406 Level Memphis Center
Sun 04:04:08 PM 37.0433 -89.4664 336° Northwest 419 482 30,700 -1,392 Descending Kansas City Center
Sun 04:05:10 PM 37.1686 -89.5378 336° Northwest 413 475 27,500 -2,274 Descending Kansas City Center
Sun 04:06:12 PM 37.2694 -89.5975 335° Northwest 404 465 26,000 -726 Descending Kansas City Center
Sun 04:07:14 PM 37.3722 -89.6525 337° Northwest 401 461 26,000  Level Kansas City Center
Sun 04:08:16 PM 37.4747 -89.7081 337° Northwest 401 461 26,000 -194 Level Kansas City Center
Sun 04:09:18 PM 37.5753 -89.7639 336° Northwest 397 457 25,600 -1,403 Descending Kansas City Center
Sun 04:10:20 PM 37.6678 -89.8161 336° Northwest 385 443 23,100 -2,565 Descending Kansas City Center
Sun 04:11:22 PM 37.7789 -89.8767 337° Northwest 367 422 20,300 -2,565 Descending Kansas City Center
Sun 04:12:24 PM 37.8736 -89.9253 338° Northwest 348 400 17,800 -2,371 Descending Kansas City Center
Sun 04:13:26 PM 37.9578 -89.9742 335° Northwest 334 384 15,400 -2,371 Descending Kansas City Center
Sun 04:14:28 PM 38.0389 -90.0181 337° Northwest 320 368 12,900 -2,081 Descending Kansas City Center
Sun 04:15:30 PM 38.1114 -90.0578 337° Northwest 308 354 11,100 -1,306 Descending Kansas City Center
Sun 04:16:32 PM 38.1886 -90.0592 359° North 290 334 10,200 -1,065 Descending Kansas City Center
Sun 04:17:34 PM 38.2744 -90.0500 North 264 304 8,900 -1,403 Descending Kansas City Center
Sun 04:18:36 PM 38.3453 -90.0450 North 259 298 7,300 -1,355 Descending Kansas City Center
Sun 04:19:38 PM 38.4158 -90.0397 North 257 296 6,100 -677 Descending Kansas City Center
Sun 04:20:40 PM 38.4803 -90.0586 347° North 245 282 5,900 -780 Descending Kansas City Center
Sun 04:21:41 PM 38.5367 -90.0822 342° North 225 259 4,500 -1,171 Descending Kansas City Center
Sun 04:22:43 PM 38.5875 -90.1158 333° Northwest 214 246 3,500 -435 Descending Kansas City Center
Sun 04:23:45 PM 38.6486 -90.1575 332° Northwest 209 241 3,600 -145 Climbing Kansas City Center
Sun 04:24:47 PM 38.6750 -90.2094 303° West 184 212 3,200 -677 Descending Kansas City Center
Sun 04:25:49 PM 38.6994 -90.2603 302° West 175 201 2,200 -871 Descending Kansas City Center
Sun 04:26:51 PM 38.7217 -90.3047 303° West 158 182 1,400 -726 Descending Kansas City Center
Sun 04:27:53 PM 38.7417 -90.3442 303° West 142 163 700 -677 Descending Kansas City Center
Sun 04:29:00 PM 38.7333 -90.3667 345° North  Level FlightAware Approximate

Login

Don't have an account? Register now (free) for customized features, flight alerts, and more!